Time;durP1;ratioP1;P1;durP2;ratioP2;P2;SDS_P1;SDS_P2;PMS_P1;PMS_P2;Temp;Humidity;BMP_temperature;BMP_pressure;BME280_temperature;BME280_humidity;BME280_pressure;Samples;Min_cycle;Max_cycle;Signal;HPM_P1;HPM_P2
2021/01/16 00:01:40;;;;;;;79.22;33.53;;;;;;;-7.71;74.90;99059.44;2221270;80;21151;-77
2021/01/16 00:04:41;;;;;;;97.40;40.38;;;;;;;-7.82;74.86;99062.39;2221650;79;21277;-78
2021/01/16 00:07:44;;;;;;;81.75;35.80;;;;;;;-7.81;75.14;99059.78;2221240;79;21266;-78
2021/01/16 00:10:45;;;;;;;67.17;30.97;;;;;;;-7.75;75.12;99063.38;2221647;79;21262;-78
2021/01/16 00:13:47;;;;;;;79.07;35.45;;;;;;;-7.71;75.07;99072.98;2221749;79;21269;-78
2021/01/16 00:16:49;;;;;;;72.75;32.70;;;;;;;-7.68;75.06;99063.13;2221498;79;21266;-78
2021/01/16 00:19:50;;;;;;;86.67;36.75;;;;;;;-7.75;74.96;99060.84;2221240;79;21591;-78
2021/01/16 00:22:52;;;;;;;78.28;36.98;;;;;;;-7.72;75.02;99058.62;2221359;79;21334;-78
2021/01/16 00:25:53;;;;;;;76.65;34.33;;;;;;;-7.74;74.94;99061.66;2246914;79;22214;-78
2021/01/16 00:28:55;;;;;;;71.92;32.00;;;;;;;-7.76;74.86;99064.27;2258124;78;21155;-78
2021/01/16 00:31:57;;;;;;;61.45;26.33;;;;;;;-7.76;75.03;99062.17;2258021;78;21143;-79
2021/01/16 00:34:58;;;;;;;71.97;30.15;;;;;;;-7.78;74.95;99060.93;2258068;79;21128;-77
2021/01/16 00:38:00;;;;;;;58.95;29.10;;;;;;;-7.82;74.87;99071.28;2258060;79;21147;-77
2021/01/16 00:41:01;;;;;;;64.07;27.62;;;;;;;-7.81;74.92;99061.05;2258015;79;21135;-77
2021/01/16 00:44:03;;;;;;;63.68;28.32;;;;;;;-7.79;74.95;99068.17;2258012;79;21140;-77
2021/01/16 00:47:05;;;;;;;65.12;28.27;;;;;;;-7.66;75.00;99066.03;2258108;78;21567;-77
2021/01/16 00:50:06;;;;;;;61.85;28.42;;;;;;;-7.60;74.64;99070.86;2258273;79;21297;-78
2021/01/16 00:53:08;;;;;;;66.53;28.12;;;;;;;-7.61;74.53;99074.30;2258038;78;21151;-78
2021/01/16 00:56:10;;;;;;;61.35;27.40;;;;;;;-7.55;74.67;99065.61;2258008;78;21143;-78
2021/01/16 00:59:11;;;;;;;60.38;27.45;;;;;;;-7.47;74.51;99063.61;2258259;79;21285;-77
2021/01/16 01:02:13;;;;;;;60.60;28.92;;;;;;;-7.48;74.33;99059.41;2258087;79;21544;-77
2021/01/16 01:05:15;;;;;;;62.80;25.30;;;;;;;-7.48;74.40;99055.60;2258304;79;21115;-77
2021/01/16 01:08:17;;;;;;;60.70;24.87;;;;;;;-7.39;74.32;99054.42;2257952;78;21167;-77
2021/01/16 01:11:21;;;;;;;51.05;21.30;;;;;;;-7.37;74.31;99052.19;2258019;78;21629;-77
2021/01/16 01:14:22;;;;;;;44.13;21.57;;;;;;;-7.30;74.35;99065.52;2258044;79;21166;-77
2021/01/16 01:17:24;;;;;;;60.60;24.60;;;;;;;-7.23;74.30;99065.19;2258018;79;21164;-77
2021/01/16 01:20:25;;;;;;;56.65;23.73;;;;;;;-7.20;74.37;99061.27;2258243;79;21688;-77
2021/01/16 01:23:27;;;;;;;49.35;22.45;;;;;;;-7.09;74.44;99057.02;2258334;79;21512;-77
2021/01/16 01:26:29;;;;;;;56.42;22.87;;;;;;;-6.99;74.44;99054.94;2267428;78;21170;-77
2021/01/16 01:29:30;;;;;;;47.40;23.73;;;;;;;-6.87;74.58;99052.71;2269818;78;21301;-77
2021/01/16 01:32:32;;;;;;;52.93;23.70;;;;;;;-6.80;74.00;99049.48;2270161;78;21313;-78
2021/01/16 01:35:33;;;;;;;43.28;20.90;;;;;;;-6.87;73.49;99055.70;2269832;78;21134;-79
2021/01/16 01:38:35;;;;;;;42.60;21.12;;;;;;;-6.94;73.54;99047.51;2269800;78;21674;-76
2021/01/16 01:41:36;;;;;;;47.83;21.73;;;;;;;-6.98;73.70;99051.50;2270122;78;21309;-77
2021/01/16 01:44:38;;;;;;;35.70;17.52;;;;;;;-6.85;73.87;99056.49;2270170;78;21159;-78
2021/01/16 01:47:40;;;;;;;54.98;30.35;;;;;;;-6.69;73.99;99049.02;2269818;78;21171;-78
2021/01/16 01:50:41;;;;;;;61.50;26.68;;;;;;;-6.61;73.83;99053.36;2269954;78;21701;-78
2021/01/16 01:53:42;;;;;;;70.00;28.25;;;;;;;-6.58;73.62;99051.98;2270112;78;21312;-78
2021/01/16 01:56:44;;;;;;;36.88;19.87;;;;;;;-6.62;73.46;99044.89;2269855;78;21304;-78
2021/01/16 01:59:46;;;;;;;41.80;19.30;;;;;;;-6.59;73.86;99048.58;2269826;78;21170;-78
2021/01/16 02:02:47;;;;;;;33.42;18.32;;;;;;;-6.40;73.71;99049.07;2270121;78;21147;-78
2021/01/16 02:05:49;;;;;;;43.02;18.35;;;;;;;-6.34;73.53;99052.64;2269953;78;21678;-76
2021/01/16 02:08:51;;;;;;;38.17;18.50;;;;;;;-6.28;73.46;99046.47;2269809;78;21163;-76
2021/01/16 02:11:53;;;;;;;75.25;27.37;;;;;;;-6.29;73.38;99034.62;2270139;78;21285;-76
2021/01/16 02:14:55;;;;;;;30.15;15.85;;;;;;;-6.28;72.92;99032.00;2269805;78;21159;-77
2021/01/16 02:17:57;;;;;;;35.73;16.75;;;;;;;-6.27;73.33;99027.73;2269788;78;21598;-77
2021/01/16 02:20:58;;;;;;;65.15;29.57;;;;;;;-6.11;73.60;99021.89;2269897;78;21300;-77
2021/01/16 02:24:00;;;;;;;67.35;27.40;;;;;;;-5.96;73.34;99022.09;2270117;78;21158;-77
2021/01/16 02:27:01;;;;;;;66.10;26.15;;;;;;;-5.90;73.31;99023.09;2269889;78;21566;-78
2021/01/16 02:30:03;;;;;;;62.17;25.08;;;;;;;-5.83;73.36;99017.63;2270187;78;21586;-78
2021/01/16 02:33:05;;;;;;;53.20;23.52;;;;;;;-5.72;73.30;99020.50;2269981;78;21297;-78
2021/01/16 02:36:06;;;;;;;44.38;21.70;;;;;;;-5.72;72.95;99020.95;2269948;78;21622;-78
2021/01/16 02:39:08;;;;;;;46.68;20.52;;;;;;;-5.70;73.02;99017.05;2270097;78;21155;-77
2021/01/16 02:42:09;;;;;;;44.33;18.95;;;;;;;-5.61;73.27;99019.18;2269942;78;21313;-78
2021/01/16 02:45:11;;;;;;;29.80;16.65;;;;;;;-5.46;73.38;99022.30;2269988;78;21246;-78
2021/01/16 02:48:13;;;;;;;56.98;23.45;;;;;;;-5.32;73.23;99019.09;2270183;78;21281;-78
2021/01/16 02:51:14;;;;;;;64.27;24.60;;;;;;;-5.30;72.67;99025.80;2270135;78;21309;-77
2021/01/16 02:54:16;;;;;;;81.95;29.77;;;;;;;-5.29;72.94;99013.41;2269977;78;21281;-77
2021/01/16 02:57:18;;;;;;;70.40;28.38;;;;;;;-5.22;72.99;99017.30;2269890;78;21296;-77
2021/01/16 03:00:19;;;;;;;39.85;19.90;;;;;;;-5.19;72.82;99029.94;2270018;78;21286;-78
2021/01/16 03:03:21;;;;;;;41.53;20.68;;;;;;;-5.33;72.25;99027.65;2269767;78;21293;-78
2021/01/16 03:06:23;;;;;;;45.33;21.55;;;;;;;-5.41;72.71;99031.83;2270105;78;21286;-78
2021/01/16 03:09:24;;;;;;;41.20;19.15;;;;;;;-5.42;72.76;99025.08;2269905;78;21285;-78
2021/01/16 03:12:26;;;;;;;44.93;21.25;;;;;;;-5.31;73.03;99024.56;2269953;78;21630;-78
2021/01/16 03:15:28;;;;;;;43.48;19.62;;;;;;;-5.45;72.46;99020.13;2269951;78;21281;-78
2021/01/16 03:18:29;;;;;;;57.80;25.23;;;;;;;-5.49;72.67;99009.22;2269915;78;21289;-77
2021/01/16 03:21:31;;;;;;;49.80;26.07;;;;;;;-5.53;72.73;99005.17;2269978;78;21721;-78
2021/01/16 03:24:32;;;;;;;33.10;18.10;;;;;;;-5.60;72.87;99002.97;2270021;78;21293;-77
2021/01/16 03:27:34;;;;;;;47.88;20.00;;;;;;;-5.63;72.94;98995.47;2258387;78;21575;-77
2021/01/16 03:30:36;;;;;;;46.15;21.27;;;;;;;-5.58;72.73;98993.06;2258316;79;21297;-77
2021/01/16 03:33:37;;;;;;;33.88;17.23;;;;;;;-5.68;72.80;98994.39;2258053;78;22124;-78
2021/01/16 03:36:39;;;;;;;39.42;17.87;;;;;;;-5.64;73.18;98992.55;2258433;78;21281;-77
2021/01/16 03:39:41;;;;;;;38.05;18.12;;;;;;;-5.56;73.28;98994.30;2258054;79;21143;-78
2021/01/16 03:42:42;;;;;;;29.45;16.07;;;;;;;-5.58;73.19;99001.99;2258062;78;21140;-78
2021/01/16 03:45:44;;;;;;;33.50;17.87;;;;;;;-5.57;73.28;99004.13;2258154;79;21698;-79
2021/01/16 03:48:45;;;;;;;31.05;17.57;;;;;;;-5.54;73.46;99002.24;2258421;79;21623;-78
2021/01/16 03:51:46;;;;;;;31.48;16.05;;;;;;;-5.47;73.47;99004.89;2258290;79;21571;-78
2021/01/16 03:54:49;;;;;;;35.65;18.05;;;;;;;-5.44;73.41;99003.91;2258232;79;21614;-78
2021/01/16 03:57:51;;;;;;;33.63;16.40;;;;;;;-5.38;73.62;98997.70;2258019;79;21104;-78
2021/01/16 04:00:52;;;;;;;30.92;16.48;;;;;;;-5.25;73.36;99006.41;2258298;79;21325;-78
2021/01/16 04:03:54;;;;;;;39.38;18.55;;;;;;;-5.33;73.14;99008.05;2258028;79;21178;-78
2021/01/16 04:06:56;;;;;;;33.02;16.40;;;;;;;-5.39;73.37;98997.30;2258014;79;21155;-78
2021/01/16 04:10:00;;;;;;;31.37;15.58;;;;;;;-5.39;73.43;98993.47;2258347;79;21273;-78
2021/01/16 04:13:01;;;;;;;28.80;15.48;;;;;;;-5.38;73.60;99000.25;2258162;79;21131;-77
2021/01/16 04:16:03;;;;;;;27.42;13.70;;;;;;;-5.34;73.68;98992.81;2258208;79;21297;-77
2021/01/16 04:19:04;;;;;;;24.95;15.13;;;;;;;-5.32;73.68;98999.94;2258266;79;21168;-78
2021/01/16 04:22:06;;;;;;;28.07;13.50;;;;;;;-5.37;73.71;98991.24;2258122;79;21630;-78
2021/01/16 04:25:08;;;;;;;27.87;13.13;;;;;;;-5.38;73.80;98987.05;2257948;78;21135;-77
2021/01/16 04:28:09;;;;;;;26.30;12.82;;;;;;;-5.36;73.95;98986.96;2258115;79;21133;-78
2021/01/16 04:31:11;;;;;;;21.70;12.18;;;;;;;-5.30;74.16;98979.84;2258053;78;21096;-78
2021/01/16 04:34:13;;;;;;;26.45;13.03;;;;;;;-5.21;74.20;98971.74;2258037;79;21119;-77
2021/01/16 04:37:14;;;;;;;26.60;13.75;;;;;;;-5.19;74.02;98981.88;2258026;78;21131;-79
2021/01/16 04:40:16;;;;;;;23.20;11.75;;;;;;;-5.13;74.15;98973.07;2258244;79;21297;-78
2021/01/16 04:43:18;;;;;;;22.40;12.95;;;;;;;-5.08;74.13;98976.23;2258290;78;21301;-78
2021/01/16 04:46:19;;;;;;;17.02;11.78;;;;;;;-5.05;74.07;98976.08;2258330;79;21143;-78
2021/01/16 04:49:21;;;;;;;21.82;14.05;;;;;;;-5.05;74.10;98970.97;2258130;79;21155;-78
2021/01/16 04:52:23;;;;;;;23.50;12.95;;;;;;;-5.03;74.20;98966.19;2257936;78;21107;-78
2021/01/16 04:55:24;;;;;;;32.42;14.13;;;;;;;-4.94;74.34;98968.70;2258004;78;21139;-78
2021/01/16 04:58:26;;;;;;;26.90;13.48;;;;;;;-4.87;74.17;98963.67;2257990;78;21439;-78
2021/01/16 05:01:27;;;;;;;25.80;12.73;;;;;;;-4.84;74.22;98967.38;2258202;79;21693;-78
2021/01/16 05:04:29;;;;;;;18.10;11.75;;;;;;;-4.80;74.25;98965.02;2258174;79;21728;-78
2021/01/16 05:07:30;;;;;;;22.30;12.95;;;;;;;-4.77;74.24;98966.14;2258212;79;21614;-78
2021/01/16 05:10:32;;;;;;;16.27;10.35;;;;;;;-4.76;74.18;98964.41;2258819;79;21805;-78
2021/01/16 05:13:33;;;;;;;20.08;12.53;;;;;;;-4.76;74.31;98962.67;2257927;79;21147;-78
2021/01/16 05:16:34;;;;;;;24.15;12.37;;;;;;;-4.83;74.27;98963.91;2258051;79;21178;-78
2021/01/16 05:19:36;;;;;;;23.47;12.40;;;;;;;-4.91;74.54;98957.91;2258299;79;21733;-78
2021/01/16 05:22:38;;;;;;;24.00;12.20;;;;;;;-4.90;74.77;98947.23;2257907;79;21693;-78
2021/01/16 05:25:39;;;;;;;27.10;15.18;;;;;;;-4.92;74.74;98952.42;2257932;79;21174;-78
2021/01/16 05:28:41;;;;;;;20.77;12.65;;;;;;;-4.85;74.97;98960.58;2257988;79;21088;-79
2021/01/16 05:31:42;;;;;;;23.20;13.58;;;;;;;-4.77;74.96;98957.19;2257985;79;21123;-78
2021/01/16 05:34:44;;;;;;;37.98;16.95;;;;;;;-4.73;74.90;98942.09;2257962;79;21167;-78
2021/01/16 05:37:45;;;;;;;27.62;14.60;;;;;;;-4.68;75.05;98953.34;2257966;79;21131;-78
2021/01/16 05:40:47;;;;;;;27.07;14.87;;;;;;;-4.66;74.95;98954.95;2258162;78;21242;-78
2021/01/16 05:43:48;;;;;;;29.63;16.93;;;;;;;-4.63;75.01;98957.78;2258144;79;21166;-78
2021/01/16 05:46:50;;;;;;;29.60;15.80;;;;;;;-4.61;75.12;98955.97;2258435;78;21167;-77
2021/01/16 05:49:51;;;;;;;37.15;19.10;;;;;;;-4.63;75.06;98949.66;2258471;79;21122;-78
2021/01/16 05:52:53;;;;;;;38.33;19.27;;;;;;;-4.62;75.13;98951.31;2258354;79;21693;-78
2021/01/16 05:55:55;;;;;;;33.60;19.42;;;;;;;-4.65;75.17;98962.16;2258396;78;21131;-78
2021/01/16 05:58:56;;;;;;;34.73;16.87;;;;;;;-4.64;75.29;98961.25;2258352;78;21162;-78
2021/01/16 06:01:58;;;;;;;40.38;21.87;;;;;;;-4.60;75.37;98955.06;2257836;79;21602;-78
2021/01/16 06:04:59;;;;;;;32.58;15.78;;;;;;;-4.56;75.35;98957.85;2258186;78;22247;-78
2021/01/16 06:08:01;;;;;;;41.83;20.85;;;;;;;-4.56;75.36;98954.47;2257893;79;21281;-79
2021/01/16 06:11:03;;;;;;;34.05;17.27;;;;;;;-4.55;75.41;98954.84;2257973;79;21265;-79
2021/01/16 06:14:05;;;;;;;30.82;18.15;;;;;;;-4.51;75.57;98949.48;2258151;79;21124;-80
2021/01/16 06:17:06;;;;;;;35.43;18.70;;;;;;;-4.49;75.61;98946.38;2258101;79;21587;-78
2021/01/16 06:20:08;;;;;;;32.33;17.52;;;;;;;-4.52;75.54;98940.62;2258126;79;21159;-77
2021/01/16 06:23:10;;;;;;;33.70;18.48;;;;;;;-4.47;75.88;98930.99;2258253;79;21302;-77
2021/01/16 06:26:11;;;;;;;36.68;18.52;;;;;;;-4.38;75.83;98936.91;2258190;79;21278;-77
2021/01/16 06:29:13;;;;;;;31.15;17.05;;;;;;;-4.34;75.85;98930.25;2258322;79;21131;-76
2021/01/16 06:32:14;;;;;;;32.80;16.90;;;;;;;-4.31;75.71;98931.81;2258104;78;21163;-76
2021/01/16 06:35:16;;;;;;;24.20;13.28;;;;;;;-4.32;75.88;98929.71;2258001;78;21179;-76
2021/01/16 06:38:18;;;;;;;46.75;22.27;;;;;;;-4.35;75.69;98946.50;2258048;78;21298;-76
2021/01/16 06:41:19;;;;;;;47.93;24.12;;;;;;;-4.42;75.62;98938.77;2258204;79;21277;-77
2021/01/16 06:44:20;;;;;;;43.00;23.47;;;;;;;-4.41;75.96;98946.81;2257882;79;21147;-77
2021/01/16 06:47:22;;;;;;;52.60;25.48;;;;;;;-4.38;75.86;98939.45;2258032;79;21135;-76
2021/01/16 06:50:24;;;;;;;49.40;26.37;;;;;;;-4.34;76.25;98939.66;2258113;79;21146;-77
2021/01/16 06:53:26;;;;;;;53.52;25.88;;;;;;;-4.27;76.19;98941.45;2258438;78;21683;-77
2021/01/16 06:56:28;;;;;;;75.03;34.45;;;;;;;-4.20;76.25;98933.83;2258417;79;21132;-77
2021/01/16 06:59:29;;;;;;;79.25;35.25;;;;;;;-4.13;76.03;98941.06;2258216;78;21119;-77
2021/01/16 07:02:31;;;;;;;85.47;37.00;;;;;;;-4.10;75.99;98938.36;2257895;79;21116;-77
2021/01/16 07:05:33;;;;;;;84.60;36.40;;;;;;;-4.05;76.05;98934.27;2258100;79;21566;-76
2021/01/16 07:08:34;;;;;;;81.97;37.90;;;;;;;-4.08;76.01;98936.54;2258394;78;21305;-77
2021/01/16 07:11:36;;;;;;;94.60;42.03;;;;;;;-4.03;76.11;98936.28;2258286;78;21741;-77
2021/01/16 07:14:37;;;;;;;79.05;37.58;;;;;;;-3.93;76.13;98937.45;2258254;78;21294;-77
2021/01/16 07:17:39;;;;;;;72.72;36.93;;;;;;;-3.86;76.12;98934.91;2258260;79;21139;-77
2021/01/16 07:20:40;;;;;;;77.32;37.33;;;;;;;-3.73;76.12;98937.64;2258190;79;21281;-77
2021/01/16 07:23:42;;;;;;;86.25;39.73;;;;;;;-3.73;75.93;98936.37;2258220;79;21646;-76
2021/01/16 07:26:43;;;;;;;86.35;42.23;;;;;;;-3.66;76.10;98938.93;2262205;78;21681;-77
2021/01/16 07:29:45;;;;;;;95.28;50.60;;;;;;;-3.64;76.02;98934.58;2269889;78;21127;-75
2021/01/16 07:32:46;;;;;;;101.75;51.13;;;;;;;-3.54;76.25;98935.71;2270175;78;21733;-75
2021/01/16 07:35:48;;;;;;;100.35;49.35;;;;;;;-3.38;76.12;98932.27;2269817;78;21792;-75
2021/01/16 07:38:50;;;;;;;98.92;48.00;;;;;;;-3.26;75.95;98936.72;2269871;78;21179;-75
2021/01/16 07:41:51;;;;;;;82.30;40.10;;;;;;;-3.16;75.60;98946.80;2269803;78;21146;-75
2021/01/16 07:44:53;;;;;;;71.65;34.78;;;;;;;-3.11;75.51;98935.81;2269890;78;21103;-76
2021/01/16 07:47:55;;;;;;;67.78;33.45;;;;;;;-3.03;75.44;98937.48;2269879;78;21308;-76
2021/01/16 07:50:56;;;;;;;61.95;32.05;;;;;;;-2.87;75.46;98933.58;2269836;78;21314;-74
2021/01/16 07:53:58;;;;;;;57.90;29.07;;;;;;;-2.79;75.17;98939.55;2270169;78;21296;-77
2021/01/16 07:56:59;;;;;;;60.60;29.05;;;;;;;-2.72;75.04;98939.56;2269847;78;21127;-76
2021/01/16 08:00:01;;;;;;;66.75;29.12;;;;;;;-2.72;74.95;98946.79;2269853;78;21138;-76
2021/01/16 08:03:02;;;;;;;46.13;25.48;;;;;;;-2.73;75.07;98933.61;2269820;78;21293;-77
2021/01/16 08:06:04;;;;;;;44.67;23.98;;;;;;;-2.75;75.12;98937.16;2269848;78;21301;-75
2021/01/16 08:09:06;;;;;;;38.28;22.20;;;;;;;-2.75;75.19;98935.41;2270438;78;21586;-77
2021/01/16 08:12:07;;;;;;;52.98;28.02;;;;;;;-2.69;75.25;98932.50;2270169;78;21281;-77
2021/01/16 08:15:09;;;;;;;56.77;30.55;;;;;;;-2.62;75.15;98940.66;2270178;78;21666;-77
2021/01/16 08:18:10;;;;;;;54.48;29.98;;;;;;;-2.55;75.21;98938.10;2270037;78;21170;-78
2021/01/16 08:21:12;;;;;;;47.83;27.50;;;;;;;-2.46;75.20;98945.24;2269808;78;21290;-77
2021/01/16 08:24:14;;;;;;;60.88;35.25;;;;;;;-2.34;74.96;98939.83;2269766;78;21550;-76
2021/01/16 08:27:15;;;;;;;66.05;35.65;;;;;;;-2.21;74.74;98933.48;2269713;78;21282;-78
2021/01/16 08:30:17;;;;;;;64.35;34.65;;;;;;;-2.12;74.77;98940.61;2270150;78;21331;-77
2021/01/16 08:33:20;;;;;;;57.43;32.78;;;;;;;-2.06;74.46;98940.25;2270371;78;21324;-76
2021/01/16 08:36:21;;;;;;;60.80;33.50;;;;;;;-1.98;74.51;98941.88;2269753;78;21265;-75
2021/01/16 08:39:23;;;;;;;65.83;36.17;;;;;;;-2.00;74.43;98941.16;2269749;78;21271;-76
2021/01/16 08:42:26;;;;;;;67.87;35.68;;;;;;;-2.00;74.40;98932.17;2269767;78;21269;-76
2021/01/16 08:45:28;;;;;;;63.28;35.20;;;;;;;-1.97;74.46;98943.98;2269808;78;21289;-76
2021/01/16 08:48:29;;;;;;;64.90;34.50;;;;;;;-1.93;74.58;98938.55;2269792;78;21257;-75
2021/01/16 08:51:31;;;;;;;47.65;26.87;;;;;;;-1.80;74.58;98934.78;2269813;78;21289;-77
2021/01/16 08:54:32;;;;;;;58.63;31.17;;;;;;;-1.72;73.90;98935.94;2269877;78;21630;-78
2021/01/16 08:57:34;;;;;;;57.00;30.10;;;;;;;-1.60;74.10;98938.19;2269815;78;21305;-76
2021/01/16 09:00:36;;;;;;;55.12;30.85;;;;;;;-1.41;74.00;98944.72;2269757;78;21302;-77
2021/01/16 09:03:37;;;;;;;49.55;26.93;;;;;;;-1.34;73.83;98933.95;2269749;78;21274;-78
2021/01/16 09:06:39;;;;;;;62.67;31.25;;;;;;;-1.12;73.36;98923.09;2269868;78;21273;-76
2021/01/16 09:09:41;;;;;;;66.30;31.37;;;;;;;-0.94;72.98;98931.33;2270234;78;21165;-77
2021/01/16 09:12:42;;;;;;;55.80;27.25;;;;;;;-0.82;72.57;98922.82;2270102;78;21325;-77
2021/01/16 09:15:46;;;;;;;50.30;27.13;;;;;;;-0.74;72.53;98921.81;2269674;78;21152;-76
2021/01/16 09:18:47;;;;;;;49.33;29.37;;;;;;;-0.80;71.67;98922.25;2270212;78;21274;-77
2021/01/16 09:21:50;;;;;;;50.35;28.95;;;;;;;-0.78;72.68;98926.82;2270099;78;21146;-78
2021/01/16 09:24:52;;;;;;;53.00;28.42;;;;;;;-0.69;72.92;98928.77;2269821;78;21324;-76
2021/01/16 09:27:53;;;;;;;52.80;30.92;;;;;;;-0.61;73.04;98917.97;2243123;78;21175;-77
2021/01/16 09:30:55;;;;;;;52.33;30.92;;;;;;;-0.54;72.66;98913.24;2221103;80;21285;-77
2021/01/16 09:33:57;;;;;;;56.60;31.65;;;;;;;-0.40;72.42;98902.34;2221404;79;21266;-77
2021/01/16 09:37:00;;;;;;;60.83;32.75;;;;;;;-0.36;72.06;98901.69;2221200;79;21738;-77
2021/01/16 09:40:02;;;;;;;55.05;31.60;;;;;;;-0.48;71.79;98894.33;2221286;79;21195;-80
2021/01/16 09:43:03;;;;;;;50.25;30.92;;;;;;;-0.41;72.11;98898.59;2221339;79;21147;-79
2021/01/16 09:46:05;;;;;;;40.58;25.15;;;;;;;-0.33;72.01;98897.61;2221311;80;21258;-79
2021/01/16 09:49:06;;;;;;;54.08;32.42;;;;;;;-0.25;71.52;98897.91;2221685;79;21183;-78
2021/01/16 09:52:08;;;;;;;58.95;33.05;;;;;;;-0.23;71.83;98889.60;2221441;79;21314;-79
2021/01/16 09:55:10;;;;;;;37.73;24.47;;;;;;;-0.23;71.85;98887.50;2221721;79;21301;-79
2021/01/16 09:58:11;;;;;;;40.85;25.17;;;;;;;-0.29;71.44;98880.55;2221566;79;21552;-80
2021/01/16 10:01:13;;;;;;;45.00;26.90;;;;;;;-0.39;71.88;98882.58;2221343;79;21278;-79
2021/01/16 10:04:14;;;;;;;36.85;22.75;;;;;;;-0.38;72.26;98880.36;2221447;79;21297;-78
2021/01/16 10:07:16;;;;;;;41.45;24.52;;;;;;;-0.42;71.88;98882.34;2221337;79;21305;-78
2021/01/16 10:10:18;;;;;;;39.83;21.95;;;;;;;-0.55;71.94;98877.67;2221294;79;21305;-78
2021/01/16 10:13:20;;;;;;;32.10;20.02;;;;;;;-0.57;71.94;98877.77;2221768;80;21495;-82
2021/01/16 10:16:22;;;;;;;34.98;21.62;;;;;;;-0.59;71.69;98873.67;2221682;80;21293;-80
2021/01/16 10:19:23;;;;;;;43.48;23.83;;;;;;;-0.51;72.08;98867.54;2221721;79;21282;-82
2021/01/16 10:22:25;;;;;;;33.35;20.05;;;;;;;-0.42;71.75;98864.33;2221723;79;21266;-81
2021/01/16 10:25:26;;;;;;;42.67;23.47;;;;;;;-0.46;71.69;98856.91;2221735;79;21342;-82
2021/01/16 10:28:28;;;;;;;30.75;20.77;;;;;;;-0.52;71.09;98853.04;2245721;78;21313;-80
2021/01/16 10:31:33;;;;;;;31.55;19.80;;;;;;;-0.59;71.64;98842.34;2258393;79;21155;-80
2021/01/16 10:34:34;;;;;;;20.32;13.90;;;;;;;-0.50;71.58;98841.35;2258423;79;21306;-81
2021/01/16 10:37:36;;;;;;;27.55;17.75;;;;;;;-0.42;71.35;98844.22;2258496;79;21309;-79
2021/01/16 11:36:42;;;;;;;18.15;13.28;;;;;;;-0.52;70.98;98762.19;2272595;77;22366;-76
2021/01/16 11:39:44;;;;;;;22.60;14.70;;;;;;;-0.63;70.96;98763.77;2269338;78;21294;-77
2021/01/16 11:42:45;;;;;;;18.92;12.40;;;;;;;-0.69;71.19;98773.66;2269201;78;21296;-77
2021/01/16 11:45:47;;;;;;;18.65;11.55;;;;;;;-0.77;71.44;98743.80;2269304;78;21265;-78
2021/01/16 11:48:49;;;;;;;33.80;19.20;;;;;;;-0.83;71.40;98766.06;2269152;78;21556;-77
2021/01/16 11:51:50;;;;;;;33.50;18.85;;;;;;;-0.95;71.86;98749.75;2269045;78;21288;-77
2021/01/16 11:54:52;;;;;;;22.02;15.25;;;;;;;-1.00;72.38;98755.22;2269578;78;21297;-77
2021/01/16 11:57:55;;;;;;;18.27;11.48;;;;;;;-0.99;72.41;98747.86;2269454;78;21325;-77
2021/01/16 12:00:56;;;;;;;20.48;14.43;;;;;;;-1.07;72.44;98755.28;2269184;78;21142;-77
2021/01/16 12:03:58;;;;;;;22.87;16.07;;;;;;;-1.14;72.28;98743.77;2269161;78;21721;-78
2021/01/16 12:07:00;;;;;;;22.65;16.32;;;;;;;-1.30;72.50;98749.13;2268905;78;21681;-78
2021/01/16 12:10:02;;;;;;;24.47;13.90;;;;;;;-1.38;72.32;98742.39;2268997;78;21728;-77
2021/01/16 12:13:04;;;;;;;17.95;13.60;;;;;;;-1.38;73.13;98739.00;2268885;78;21296;-77
2021/01/16 12:16:06;;;;;;;22.93;14.50;;;;;;;-1.39;72.97;98740.75;2268960;78;21301;-76
2021/01/16 12:19:07;;;;;;;19.52;15.00;;;;;;;-1.42;72.78;98709.33;2269341;78;21304;-78
2021/01/16 12:22:09;;;;;;;19.00;13.55;;;;;;;-1.44;73.29;98732.09;2269119;78;21713;-77
2021/01/16 12:25:11;;;;;;;23.25;14.78;;;;;;;-1.46;73.61;98730.09;2269584;78;21126;-78
2021/01/16 12:28:12;;;;;;;20.68;15.05;;;;;;;-1.52;73.07;98730.96;2269181;78;21712;-78
2021/01/16 12:31:14;;;;;;;18.60;12.82;;;;;;;-1.64;73.12;98736.47;2269037;78;21301;-78
2021/01/16 12:34:16;;;;;;;19.60;13.32;;;;;;;-1.76;72.82;98738.08;2268790;78;21206;-81
2021/01/16 12:37:18;;;;;;;22.20;14.25;;;;;;;-1.94;73.36;98734.16;2265911;78;21289;-79
2021/01/16 12:40:20;;;;;;;20.12;13.28;;;;;;;-2.01;73.63;98722.20;2266283;78;21305;-78
2021/01/16 12:43:21;;;;;;;24.98;14.35;;;;;;;-2.05;73.44;98715.61;2265883;78;21321;-77
2021/01/16 12:46:23;;;;;;;23.55;15.20;;;;;;;-2.04;73.34;98701.86;2265722;78;21269;-77
2021/01/16 12:49:24;;;;;;;24.70;15.63;;;;;;;-2.11;73.14;98716.00;2265550;79;21681;-76
2021/01/16 12:52:26;;;;;;;23.98;15.93;;;;;;;-2.20;73.53;98715.31;2265180;79;21151;-76
2021/01/16 12:55:28;;;;;;;19.42;12.30;;;;;;;-2.08;73.89;98716.29;2265220;79;21608;-76
2021/01/16 12:58:29;;;;;;;17.17;12.82;;;;;;;-2.07;73.68;98701.25;2265080;79;21167;-76
2021/01/16 13:01:31;;;;;;;25.15;15.45;;;;;;;-2.17;73.60;98691.23;2265421;79;21134;-77
2021/01/16 13:04:33;;;;;;;24.80;15.75;;;;;;;-2.18;73.43;98701.95;2265118;79;21257;-80
2021/01/16 13:07:34;;;;;;;19.60;11.90;;;;;;;-2.20;73.19;98699.92;2265210;79;21700;-78
2021/01/16 13:10:36;;;;;;;16.17;12.50;;;;;;;-2.24;73.28;98683.56;2265505;79;21194;-78
2021/01/16 13:13:38;;;;;;;24.15;15.05;;;;;;;-2.19;73.12;98699.49;2265125;79;21143;-79
2021/01/16 13:16:40;;;;;;;14.98;11.70;;;;;;;-2.15;72.92;98682.50;2265466;79;21166;-77
2021/01/16 13:19:42;;;;;;;18.48;13.40;;;;;;;-2.10;72.93;98686.06;2265645;79;21317;-77
2021/01/16 13:22:43;;;;;;;15.03;11.78;;;;;;;-2.06;72.40;98691.34;2265256;79;21305;-76
2021/01/16 13:25:45;;;;;;;17.27;12.90;;;;;;;-2.08;72.73;98694.48;2265058;79;21174;-76
2021/01/16 13:28:47;;;;;;;13.30;10.38;;;;;;;-2.04;72.51;98693.34;2265187;79;21293;-76
2021/01/16 13:31:48;;;;;;;19.27;10.95;;;;;;;-2.00;72.21;98690.95;2265035;79;21162;-76
2021/01/16 13:34:50;;;;;;;17.70;10.35;;;;;;;-1.97;72.14;98684.78;2265384;79;21174;-76
2021/01/16 13:37:52;;;;;;;18.10;11.78;;;;;;;-2.18;71.37;98685.74;2265147;79;21166;-76
2021/01/16 13:40:53;;;;;;;16.42;10.23;;;;;;;-2.33;72.18;98684.52;2265287;79;21293;-76
2021/01/16 13:43:55;;;;;;;18.45;11.15;;;;;;;-2.34;72.50;98684.16;2265268;79;21135;-76
2021/01/16 13:46:57;;;;;;;23.55;14.18;;;;;;;-2.32;72.66;98677.65;2265213;79;21285;-75
2021/01/16 13:49:59;;;;;;;19.17;12.33;;;;;;;-2.39;72.72;98674.65;2265059;79;21158;-77
2021/01/16 13:53:00;;;;;;;17.55;12.23;;;;;;;-2.41;72.69;98672.66;2265414;79;21297;-76
2021/01/16 13:56:02;;;;;;;16.25;10.98;;;;;;;-2.46;72.76;98675.98;2265201;79;21622;-76
2021/01/16 13:59:04;;;;;;;16.95;10.30;;;;;;;-2.55;72.67;98663.76;2265309;78;21309;-75
2021/01/16 14:02:07;;;;;;;22.65;13.80;;;;;;;-2.62;72.88;98667.16;2265634;79;21297;-75
2021/01/16 14:05:08;;;;;;;17.00;9.90;;;;;;;-2.65;72.98;98657.55;2265125;79;21174;-76
2021/01/16 14:08:10;;;;;;;21.95;12.25;;;;;;;-2.73;72.68;98655.96;2265124;78;21175;-76
2021/01/16 14:11:13;;;;;;;15.48;10.08;;;;;;;-2.81;72.72;98651.78;2265030;79;21136;-76
2021/01/16 14:14:14;;;;;;;13.78;9.63;;;;;;;-2.96;73.03;98651.81;2265165;79;21167;-76
2021/01/16 14:17:16;;;;;;;21.07;12.73;;;;;;;-3.02;73.12;98652.19;2265423;78;21305;-77
2021/01/16 14:20:18;;;;;;;15.00;10.08;;;;;;;-3.11;73.27;98652.75;2265259;79;21167;-76
2021/01/16 14:23:19;;;;;;;17.60;10.15;;;;;;;-3.20;73.16;98649.05;2265027;79;21135;-76
2021/01/16 14:26:21;;;;;;;18.15;11.22;;;;;;;-3.32;73.25;98660.49;2265029;79;21597;-76
2021/01/16 14:29:22;;;;;;;15.83;9.65;;;;;;;-3.47;73.38;98631.55;2266126;79;21253;-75
2021/01/16 14:32:24;;;;;;;20.40;12.05;;;;;;;-3.52;73.92;98638.20;2265538;79;21326;-75
2021/01/16 14:35:26;;;;;;;16.90;9.78;;;;;;;-3.60;73.84;98634.01;2264122;79;21249;-77
2021/01/16 14:38:28;;;;;;;19.90;11.60;;;;;;;-3.65;73.98;98650.58;2262438;79;21654;-76
2021/01/16 14:41:29;;;;;;;19.37;11.35;;;;;;;-3.68;74.14;98650.73;2262707;79;21301;-76
2021/01/16 14:44:32;;;;;;;17.95;10.85;;;;;;;-3.67;74.17;98648.08;2263194;79;21103;-76
2021/01/16 14:47:33;;;;;;;19.20;11.48;;;;;;;-3.69;74.06;98655.49;2262177;79;21320;-75
2021/01/16 14:50:35;;;;;;;17.62;10.75;;;;;;;-3.75;73.93;98663.92;2262216;79;21266;-76